Airfield :
LOGIN :

Register | Disclaimer

   EN    FR    IT 

 










Legend :    VFR   Marginal VFR   IFR   Intensive IFR   Very Intensive IFR
Visi :
Ceiling :
>= 8 km
>= 3000ft
5 to 8 km
1000 to 3000 ft
1500m to 5 km
500 to 1000 ft
800 to 1500m
200 to 500 ft
< 800m
< 200 ft
Symbols :   Thunderstorms  Fog  Heavy snow  Heavy precipitations  Wind > 20 kt
SIGMETs :     Misc.  Thunderstorms  Icing  Turbulence  Mountain Waves  Volcanic Ashes







- Airport Elevation : 325 ft
- IATA code : BES
- Download approach charts


LFRB - Brest

CURRENT METAR :
  • 170030Z AUTO 27003KT 9999 3200 NSC 10/10 Q1021 NOSIG

EXPIRED METARs :
  • 170000Z AUTO 29003KT CAVOK 11/11 Q1021 NOSIG
  • 162330Z AUTO 27003KT 9999 2000 FEW018 10/10 Q1021 NOSIG
  • 162300Z AUTO 27002KT 9999 FEW026 11/11 Q1021 NOSIG
  • 162230Z AUTO 29004KT 8000 NSC 11/10 Q1021 NOSIG
  • 162200Z AUTO VRB02KT CAVOK 12/12 Q1021 NOSIG

TAF TAF LFRB
Valid from the 17 at 00:00 until the 18 at 06:00 UTC


162300Z 1700/1806 30005KT 9999 SCT025
TEMPO 1703/1706 3000 BR BKN012
PROB30
TEMPO 1703/1706 0800 BCFG
ATIS : +33 2 98 32 02 71
No reported NOTAMs for that airfield.
2 SIGMETs reported for the Brest FIR (LFRR) :
 
Severe turbulence
LFRR SIGMET 1 VALID 170200/170600 LFPW
LFRR BREST FIR/UIR SEV TURB FCST WI N4945 W00330 - N5000 W00200 - N5000 W00115 - N4715 W00300 - N4715 W00415 - N4945 W00330 FL250/350 MOV E 20KT NC=
Severe turbulence
LFRR SIGMET 1 VALID 162200/170200 LFPW
LFRR BREST FIR/UIR SEV TURB FCST WI N4915 W00645 - N4930 W00445 - N4730 W00600 - N4730 W00645 - N4915 W00645 FL230/350 MOV SE 25KT NC=



MET'MAP, your aeronautical weather chart ! - Copyright ORBIFLY December 2007 - Disclaimer

ORBIFLY MET'MAP TEAM :

Programming & Development : Alexandra Zaïnal
Concept & Development : Baudouin d'Aumeries
Co-Development & Prog : Marc-Olivier Méhu
Technical & hardware support : Manuel Goepfert

Contact : metmap@orbifly.com




SOURCES & CREDITS :

   NOAA